Time;durP1;ratioP1;P1;durP2;ratioP2;P2;SDS_P1;SDS_P2;PMS_P1;PMS_P2;Temp;Humidity;BMP_temperature;BMP_pressure;BME280_temperature;BME280_humidity;BME280_pressure;Samples;Min_cycle;Max_cycle;Signal;HPM_P1;HPM_P2
2022/10/15 00:01:43;;;;;;;59.57;53.57;;;;;;;13.50;100.00;100522.81;5070627;28;20983;-53
2022/10/15 00:04:11;;;;;;;62.13;55.73;;;;;;;13.50;100.00;100513.97;5071398;28;20427;-52
2022/10/15 00:06:40;;;;;;;57.83;52.10;;;;;;;13.50;100.00;100516.66;5071253;28;20928;-49
2022/10/15 00:09:08;;;;;;;59.33;53.33;;;;;;;13.52;100.00;100511.88;5071518;28;20505;-53
2022/10/15 00:11:35;;;;;;;58.67;52.67;;;;;;;13.51;100.00;100503.03;5070602;28;21060;-52
2022/10/15 00:14:03;;;;;;;56.57;51.47;;;;;;;13.53;100.00;100505.50;5071412;28;20492;-53
2022/10/15 00:16:31;;;;;;;54.20;49.20;;;;;;;13.54;100.00;100499.91;5071286;28;20470;-52
2022/10/15 00:19:00;;;;;;;60.57;54.17;;;;;;;13.53;100.00;100490.22;5071210;28;20442;-50
2022/10/15 00:21:27;;;;;;;60.00;53.60;;;;;;;13.56;100.00;100499.69;5062021;28;20462;-52
2022/10/15 00:23:57;;;;;;;57.47;52.07;;;;;;;13.56;100.00;100495.13;5071277;28;20434;-52
2022/10/15 00:26:27;;;;;;;56.80;51.03;;;;;;;13.58;100.00;100493.06;5070573;28;20843;-55
2022/10/15 00:28:57;;;;;;;58.37;52.43;;;;;;;13.59;100.00;100483.19;5071285;28;20422;-50
2022/10/15 00:31:27;;;;;;;63.33;56.50;;;;;;;13.60;100.00;100493.66;5070440;28;20489;-48
2022/10/15 00:33:56;;;;;;;57.50;51.87;;;;;;;13.60;100.00;100487.47;5071324;28;20430;-55
2022/10/15 00:36:25;;;;;;;58.90;53.27;;;;;;;13.61;100.00;100487.28;5071030;28;20466;-52
2022/10/15 00:38:53;;;;;;;66.13;56.27;;;;;;;13.62;100.00;100488.88;5071253;28;20487;-52
2022/10/15 00:41:25;;;;;;;59.07;52.90;;;;;;;13.64;100.00;100484.16;5073195;28;20470;-51
2022/10/15 00:43:55;;;;;;;54.87;49.40;;;;;;;13.63;100.00;100481.69;5074709;28;20426;-51
2022/10/15 00:46:26;;;;;;;57.37;51.57;;;;;;;13.65;100.00;100490.34;5074661;28;20930;-52
2022/10/15 00:48:57;;;;;;;59.00;53.10;;;;;;;13.66;100.00;100483.91;5074916;28;20519;-50
2022/10/15 00:51:31;;;;;;;58.00;52.67;;;;;;;13.65;100.00;100491.13;5073897;28;20571;-53
2022/10/15 00:54:00;;;;;;;61.90;54.57;;;;;;;13.66;100.00;100487.41;5074725;28;20426;-49
2022/10/15 00:56:31;;;;;;;53.90;48.90;;;;;;;13.68;100.00;100487.19;5074400;28;20523;-53
2022/10/15 00:59:00;;;;;;;55.47;50.10;;;;;;;13.68;100.00;100488.00;5074727;28;20487;-50
2022/10/15 01:01:27;;;;;;;56.27;51.03;;;;;;;13.69;100.00;100486.16;5073754;28;21060;-53
2022/10/15 01:03:56;;;;;;;57.57;51.73;;;;;;;13.68;100.00;100482.63;5074516;28;20982;-50
2022/10/15 01:06:24;;;;;;;56.80;51.40;;;;;;;13.69;100.00;100481.63;5074301;28;20935;-54
2022/10/15 01:08:52;;;;;;;59.37;53.47;;;;;;;13.70;100.00;100482.44;5074202;28;20576;-55
2022/10/15 01:11:39;;;;;;;59.30;53.30;;;;;;;13.69;100.00;100472.75;5073650;28;20532;-55
2022/10/15 01:14:23;;;;;;;59.27;53.07;;;;;;;13.68;100.00;100473.78;5074372;28;20434;-55
2022/10/15 01:16:57;;;;;;;59.43;53.47;;;;;;;13.65;100.00;100463.53;5074134;28;20474;-54
2022/10/15 01:19:40;;;;;;;59.20;52.83;;;;;;;13.66;100.00;100463.28;5073312;28;20423;-51
2022/10/15 01:22:13;;;;;;;58.93;53.20;;;;;;;13.63;100.00;100466.44;5068440;28;20496;-54
2022/10/15 01:25:01;;;;;;;57.17;51.47;;;;;;;13.62;100.00;100469.34;5074270;28;20426;-50
2022/10/15 01:27:34;;;;;;;59.07;53.40;;;;;;;13.59;100.00;100475.94;5074235;28;20422;-53
2022/10/15 01:30:17;;;;;;;60.10;54.50;;;;;;;13.57;100.00;100478.03;5073687;28;20523;-53
2022/10/15 01:32:53;;;;;;;61.80;55.47;;;;;;;13.58;100.00;100478.84;5073605;28;20462;-49
2022/10/15 01:35:30;;;;;;;64.40;57.53;;;;;;;13.57;100.00;100472.66;5073941;28;20437;-50
2022/10/15 01:38:06;;;;;;;65.00;58.70;;;;;;;13.55;100.00;100466.72;5073829;28;20764;-54
2022/10/15 01:40:40;;;;;;;66.27;59.47;;;;;;;13.54;100.00;100473.13;5073414;28;20458;-53
2022/10/15 01:43:12;;;;;;;65.27;58.20;;;;;;;13.52;100.00;100461.00;5073596;28;20854;-52
2022/10/15 01:45:48;;;;;;;69.87;62.27;;;;;;;13.50;100.00;100458.50;5073697;28;20445;-48
2022/10/15 01:48:17;;;;;;;70.17;59.33;;;;;;;13.47;100.00;100455.50;5073586;28;20430;-52
2022/10/15 01:50:47;;;;;;;65.50;58.50;;;;;;;13.45;100.00;100455.69;5072598;28;21373;-50
2022/10/15 01:53:17;;;;;;;68.97;61.37;;;;;;;13.42;100.00;100458.81;5073459;28;21037;-55
2022/10/15 01:55:47;;;;;;;69.10;61.23;;;;;;;13.42;100.00;100456.13;5073324;28;20445;-55
2022/10/15 01:58:17;;;;;;;64.73;57.90;;;;;;;13.42;100.00;100449.97;5073615;28;20488;-54
2022/10/15 02:00:48;;;;;;;68.80;60.90;;;;;;;13.41;100.00;100454.50;5072951;28;20458;-45
2022/10/15 02:03:15;;;;;;;62.13;55.43;;;;;;;13.41;100.00;100442.97;5073329;28;20940;-52
2022/10/15 02:05:48;;;;;;;76.70;62.60;;;;;;;13.40;100.00;100444.84;5073208;28;20952;-54
2022/10/15 02:08:25;;;;;;;67.40;60.20;;;;;;;13.39;100.00;100440.50;5073502;28;20430;-54
2022/10/15 02:10:58;;;;;;;72.70;64.30;;;;;;;13.38;100.00;100446.91;5072461;28;20520;-51
2022/10/15 02:13:37;;;;;;;72.00;60.30;;;;;;;13.38;100.00;100446.09;5073001;28;20512;-49
2022/10/15 02:16:13;;;;;;;73.17;60.57;;;;;;;13.37;100.00;100449.81;5073245;28;20558;-49
2022/10/15 02:18:47;;;;;;;70.80;61.13;;;;;;;13.36;100.00;100448.16;5074261;28;20515;-55
2022/10/15 02:21:17;;;;;;;66.23;59.20;;;;;;;13.35;100.00;100444.66;5063952;28;20583;-53
2022/10/15 02:23:51;;;;;;;67.90;60.67;;;;;;;13.35;100.00;100452.69;5072665;28;20967;-53
2022/10/15 02:26:21;;;;;;;69.40;61.67;;;;;;;13.34;100.00;100448.41;5073224;28;20843;-55
2022/10/15 02:28:53;;;;;;;70.47;61.60;;;;;;;13.36;100.00;100448.16;5072857;28;20496;-51
2022/10/15 02:31:24;;;;;;;73.47;60.57;;;;;;;13.34;100.00;100447.56;5071997;28;20472;-53
2022/10/15 02:33:55;;;;;;;68.47;60.87;;;;;;;13.32;100.00;100445.09;5072724;28;20838;-53
2022/10/15 02:36:22;;;;;;;79.27;66.07;;;;;;;13.31;100.00;100451.53;5072533;28;20892;-54
2022/10/15 02:38:52;;;;;;;68.67;59.17;;;;;;;13.29;100.00;100443.69;5072568;28;20433;-53
2022/10/15 02:41:20;;;;;;;79.93;64.40;;;;;;;13.26;100.00;100449.50;5072090;28;20508;-55
2022/10/15 02:43:48;;;;;;;82.07;64.97;;;;;;;13.26;100.00;100451.38;5072634;28;20826;-54
2022/10/15 02:46:18;;;;;;;74.50;62.63;;;;;;;13.20;100.00;100446.91;5072482;28;20491;-54
2022/10/15 02:48:47;;;;;;;75.27;62.00;;;;;;;13.18;100.00;100449.78;5072367;28;20434;-53
2022/10/15 02:51:15;;;;;;;72.40;59.77;;;;;;;13.14;100.00;100437.88;5071508;28;20807;-52
2022/10/15 02:53:42;;;;;;;79.93;59.47;;;;;;;13.09;100.00;100450.28;5072362;28;20446;-55
2022/10/15 02:56:10;;;;;;;86.83;62.50;;;;;;;13.04;100.00;100447.41;5072234;28;21000;-54
2022/10/15 02:58:37;;;;;;;72.43;60.13;;;;;;;13.03;100.00;100445.75;5072101;28;20546;-50
2022/10/15 03:01:05;;;;;;;99.63;65.67;;;;;;;13.01;100.00;100447.84;5071575;28;20470;-54
2022/10/15 03:03:33;;;;;;;93.70;62.73;;;;;;;13.02;100.00;100447.63;5071199;28;20967;-52
2022/10/15 03:06:02;;;;;;;73.13;61.67;;;;;;;13.04;100.00;100448.25;5072265;28;20438;-55
2022/10/15 03:08:30;;;;;;;90.67;63.10;;;;;;;13.05;100.00;100447.19;5072238;28;20430;-51
2022/10/15 03:11:00;;;;;;;85.60;64.70;;;;;;;13.04;100.00;100447.41;5071431;28;20469;-50
2022/10/15 03:13:27;;;;;;;101.60;66.57;;;;;;;13.01;100.00;100448.69;5072127;28;20847;-52
2022/10/15 03:15:56;;;;;;;94.77;63.43;;;;;;;13.01;100.00;100455.88;5072286;28;20511;-55
2022/10/15 03:18:23;;;;;;;90.90;63.90;;;;;;;12.96;100.00;100448.50;5072073;28;20473;-54
2022/10/15 03:20:54;;;;;;;97.67;62.40;;;;;;;12.91;100.00;100442.16;5062851;28;20458;-51
2022/10/15 03:23:23;;;;;;;83.97;62.90;;;;;;;12.87;100.00;100440.97;5071906;28;20651;-50
2022/10/15 03:25:51;;;;;;;114.93;69.97;;;;;;;12.81;100.00;100450.72;5071886;28;20441;-54
2022/10/15 03:28:19;;;;;;;107.13;68.30;;;;;;;12.76;100.00;100446.00;5071893;28;20849;-52
2022/10/15 03:30:46;;;;;;;88.00;65.50;;;;;;;12.71;100.00;100443.16;5071067;28;20541;-54
2022/10/15 03:33:14;;;;;;;93.30;66.00;;;;;;;12.65;100.00;100441.34;5071597;28;20874;-54
2022/10/15 03:35:42;;;;;;;92.13;64.63;;;;;;;12.58;100.00;100443.25;5071909;28;20439;-54
2022/10/15 03:38:10;;;;;;;86.47;62.80;;;;;;;12.54;100.00;100443.91;5071718;28;20466;-54
2022/10/15 03:40:38;;;;;;;107.30;66.57;;;;;;;12.49;100.00;100444.53;5071358;28;20515;-52
2022/10/15 03:43:06;;;;;;;112.80;63.40;;;;;;;12.43;100.00;100437.38;5071343;28;20515;-54
2022/10/15 03:45:34;;;;;;;113.13;67.80;;;;;;;12.39;100.00;100446.06;5071785;28;20847;-53
2022/10/15 03:48:01;;;;;;;92.77;63.27;;;;;;;12.33;100.00;100439.72;5071542;28;20434;-53
2022/10/15 03:50:29;;;;;;;101.50;64.20;;;;;;;12.28;100.00;100439.53;5071220;28;20466;-50
2022/10/15 03:52:57;;;;;;;92.03;61.83;;;;;;;12.24;100.00;100451.72;5071536;28;20454;-53
2022/10/15 03:55:24;;;;;;;108.80;65.70;;;;;;;12.20;100.00;100443.28;5071572;28;20437;-55
2022/10/15 03:57:53;;;;;;;116.63;68.23;;;;;;;12.16;100.00;100436.72;5070646;28;20482;-55
2022/10/15 04:00:21;;;;;;;80.13;59.37;;;;;;;12.13;100.00;100439.00;5071108;28;20458;-51
2022/10/15 04:02:49;;;;;;;94.73;62.57;;;;;;;12.09;100.00;100441.31;5071325;28;20450;-52
2022/10/15 04:05:16;;;;;;;97.20;60.33;;;;;;;12.03;100.00;100444.81;5071594;28;20484;-53
2022/10/15 04:07:44;;;;;;;94.93;63.27;;;;;;;12.02;100.00;100453.88;5071488;28;20483;-54
2022/10/15 04:10:11;;;;;;;105.87;65.10;;;;;;;12.00;100.00;100455.13;5070865;28;20466;-52
2022/10/15 04:12:39;;;;;;;115.07;65.37;;;;;;;11.99;100.00;100459.63;5071427;28;20450;-54
2022/10/15 04:15:09;;;;;;;98.50;62.60;;;;;;;12.02;100.00;100458.38;5074137;28;20491;-55
2022/10/15 04:17:37;;;;;;;100.67;65.50;;;;;;;12.03;100.00;100452.84;5075386;28;20527;-50
2022/10/15 04:20:05;;;;;;;83.83;62.90;;;;;;;12.10;100.00;100466.16;5068742;28;20512;-55
2022/10/15 04:22:32;;;;;;;97.40;64.43;;;;;;;12.16;100.00;100460.78;5072952;28;20504;-54
2022/10/15 04:25:00;;;;;;;87.43;65.37;;;;;;;12.21;100.00;100460.16;5075100;28;20932;-52
2022/10/15 04:27:27;;;;;;;106.37;67.57;;;;;;;12.25;100.00;100463.19;5075210;28;21109;-54
2022/10/15 04:29:55;;;;;;;472.23;439.00;;;;;;;12.30;100.00;100466.91;5074657;28;20527;-50
2022/10/15 04:32:24;;;;;;;94.03;69.17;;;;;;;12.35;100.00;100466.25;5074678;28;20462;-54
2022/10/15 04:34:52;;;;;;;89.47;70.97;;;;;;;12.37;100.00;100464.97;5075226;28;20869;-53
2022/10/15 04:37:19;;;;;;;106.07;74.33;;;;;;;12.41;100.00;100468.06;5075010;28;20437;-55
2022/10/15 04:39:47;;;;;;;91.10;70.27;;;;;;;12.44;100.00;100465.78;5074443;28;21053;-56
2022/10/15 04:42:15;;;;;;;82.30;70.07;;;;;;;12.45;100.00;100464.75;5074798;28;20503;-54
2022/10/15 04:44:42;;;;;;;78.77;68.40;;;;;;;12.48;100.00;100475.03;5074934;28;20483;-50
2022/10/15 04:47:10;;;;;;;86.83;70.20;;;;;;;12.49;100.00;100471.28;5074766;28;20935;-53
2022/10/15 04:49:39;;;;;;;93.47;72.27;;;;;;;12.52;100.00;100481.56;5074378;28;20426;-51
2022/10/15 04:52:06;;;;;;;93.13;77.90;;;;;;;12.50;100.00;100475.63;5074318;28;20450;-52
2022/10/15 04:54:34;;;;;;;83.03;74.30;;;;;;;12.49;100.00;100484.66;5074601;28;20850;-54
2022/10/15 04:57:02;;;;;;;79.33;69.47;;;;;;;12.49;100.00;100484.66;5074634;28;20792;-51
2022/10/15 04:59:30;;;;;;;79.57;70.40;;;;;;;12.49;100.00;100489.19;5074142;28;20543;-52
2022/10/15 05:01:57;;;;;;;79.83;69.23;;;;;;;12.50;100.00;100486.31;5074224;28;20484;-54
2022/10/15 05:04:25;;;;;;;83.47;74.57;;;;;;;12.51;100.00;100484.47;5074369;28;20434;-50
2022/10/15 05:06:54;;;;;;;90.63;76.90;;;;;;;12.50;100.00;100483.63;5074556;28;20438;-51
2022/10/15 05:09:22;;;;;;;84.00;75.20;;;;;;;12.51;100.00;100485.28;5073290;28;20430;-52
2022/10/15 05:11:50;;;;;;;82.87;71.47;;;;;;;12.51;100.00;100487.97;5073516;28;21065;-54
2022/10/15 05:14:17;;;;;;;92.37;79.67;;;;;;;12.52;100.00;100486.09;5074179;28;20484;-50
2022/10/15 05:16:45;;;;;;;87.70;76.07;;;;;;;12.52;100.00;100488.75;5074119;28;20435;-52
2022/10/15 05:19:13;;;;;;;81.30;72.87;;;;;;;12.52;100.00;100492.25;5073919;28;20478;-52
2022/10/15 05:21:41;;;;;;;93.83;78.43;;;;;;;12.51;100.00;100490.63;5062472;28;20466;-54
2022/10/15 05:24:10;;;;;;;93.17;76.77;;;;;;;12.52;100.00;100489.59;5074185;28;20423;-51
2022/10/15 05:26:38;;;;;;;90.93;76.83;;;;;;;12.54;100.00;100489.38;5048091;28;20881;-53
2022/10/15 05:29:06;;;;;;;96.13;75.03;;;;;;;12.54;100.00;100494.72;5073715;28;20510;-51
2022/10/15 05:31:34;;;;;;;91.33;77.67;;;;;;;12.53;100.00;100491.22;5073298;28;20450;-52
2022/10/15 05:34:07;;;;;;;117.90;81.47;;;;;;;12.54;100.00;100492.88;5073794;28;20430;-50
2022/10/15 05:36:35;;;;;;;104.83;79.50;;;;;;;12.55;100.00;100485.66;5072857;28;20499;-49
2022/10/15 05:39:05;;;;;;;111.33;79.00;;;;;;;12.55;100.00;100489.16;5073207;28;20473;-52
2022/10/15 05:41:34;;;;;;;110.57;83.43;;;;;;;12.54;100.00;100492.06;5072987;28;20438;-53
2022/10/15 05:44:02;;;;;;;119.70;86.07;;;;;;;12.55;100.00;100497.19;5073246;28;20426;-55
2022/10/15 05:46:30;;;;;;;116.23;82.60;;;;;;;12.56;100.00;100493.47;5073126;28;20462;-52
2022/10/15 05:48:58;;;;;;;110.43;85.23;;;;;;;12.55;100.00;100505.19;5073494;28;20427;-48
2022/10/15 05:51:27;;;;;;;119.40;87.30;;;;;;;12.54;100.00;100505.44;5072812;28;20492;-45
2022/10/15 05:53:56;;;;;;;141.20;91.80;;;;;;;12.53;100.00;100506.44;5073391;28;20434;-48
2022/10/15 05:56:24;;;;;;;138.00;88.83;;;;;;;12.56;100.00;100517.56;5072099;28;20462;-49
2022/10/15 05:58:54;;;;;;;150.20;92.80;;;;;;;12.54;100.00;100514.28;5073264;28;20551;-50
2022/10/15 06:01:21;;;;;;;138.73;90.83;;;;;;;12.52;100.00;100518.19;5073174;28;20446;-46
2022/10/15 06:03:49;;;;;;;134.50;89.07;;;;;;;12.52;100.00;100513.66;5073333;28;20433;-45
2022/10/15 06:06:18;;;;;;;145.60;91.23;;;;;;;12.51;100.00;100521.91;5072271;28;20470;-47
2022/10/15 06:08:47;;;;;;;148.37;92.60;;;;;;;12.50;100.00;100525.59;5073010;28;20567;-45
2022/10/15 06:11:14;;;;;;;141.13;95.03;;;;;;;12.51;100.00;100516.56;5072562;28;20434;-49
2022/10/15 06:13:43;;;;;;;160.87;100.23;;;;;;;12.52;100.00;100527.03;5073058;28;20473;-47
2022/10/15 06:16:14;;;;;;;150.97;95.60;;;;;;;12.53;100.00;100512.63;5072524;28;20470;-49
2022/10/15 06:18:47;;;;;;;144.13;91.97;;;;;;;12.55;100.00;100528.44;5072944;28;20508;-51
2022/10/15 06:21:15;;;;;;;156.43;92.70;;;;;;;12.57;100.00;100527.19;5063310;28;20438;-53
2022/10/15 06:23:42;;;;;;;144.03;92.33;;;;;;;12.57;100.00;100521.84;5072586;28;20504;-50
2022/10/15 06:26:10;;;;;;;146.93;95.40;;;;;;;12.57;100.00;100531.75;5072089;28;20462;-48
2022/10/15 06:28:38;;;;;;;130.67;90.63;;;;;;;12.57;100.00;100534.44;5072922;28;20484;-45
2022/10/15 06:31:06;;;;;;;142.00;91.20;;;;;;;12.58;100.00;100536.03;5072171;28;20480;-46
2022/10/15 06:33:36;;;;;;;145.67;92.83;;;;;;;12.59;100.00;100535.03;5072504;28;20450;-48
2022/10/15 06:36:05;;;;;;;145.53;92.60;;;;;;;12.61;100.00;100540.97;5071390;28;20874;-46
2022/10/15 06:38:33;;;;;;;147.03;96.67;;;;;;;12.62;100.00;100531.91;5072479;28;20571;-52
2022/10/15 06:41:04;;;;;;;153.43;92.10;;;;;;;12.64;100.00;100528.00;5072183;28;20438;-46
2022/10/15 06:43:31;;;;;;;134.00;85.60;;;;;;;12.65;100.00;100536.84;5072578;28;20846;-52
2022/10/15 06:46:03;;;;;;;112.43;81.30;;;;;;;12.69;100.00;100533.50;5072073;28;20462;-49
2022/10/15 06:48:31;;;;;;;133.40;86.40;;;;;;;12.68;100.00;100537.22;5072131;28;20437;-45
2022/10/15 06:51:01;;;;;;;127.17;85.57;;;;;;;12.73;100.00;100533.91;5071992;28;20772;-49
2022/10/15 06:53:29;;;;;;;138.10;88.97;;;;;;;12.76;100.00;100538.81;5072129;28;20442;-47
2022/10/15 06:55:58;;;;;;;129.70;85.37;;;;;;;12.80;100.00;100537.38;5071587;28;21030;-47
2022/10/15 06:58:26;;;;;;;108.70;81.93;;;;;;;12.82;100.00;100539.81;5072123;28;20468;-49
2022/10/15 07:00:53;;;;;;;113.10;81.10;;;;;;;12.88;100.00;100534.41;5071936;28;20492;-50
2022/10/15 07:03:21;;;;;;;105.97;77.83;;;;;;;12.93;100.00;100544.50;5071648;28;20491;-53
2022/10/15 07:05:48;;;;;;;118.50;75.57;;;;;;;12.97;100.00;100545.69;5071703;28;20500;-51
2022/10/15 07:08:17;;;;;;;110.30;75.30;;;;;;;12.99;100.00;100541.75;5072333;28;20862;-53
2022/10/15 07:10:46;;;;;;;116.03;80.00;;;;;;;12.99;100.00;100547.09;5071808;28;20465;-55
2022/10/15 07:13:14;;;;;;;112.43;78.37;;;;;;;13.03;100.00;100537.59;5070433;28;20454;-47
2022/10/15 07:15:43;;;;;;;118.93;81.33;;;;;;;13.06;100.00;100549.72;5070115;28;20450;-52
2022/10/15 07:18:11;;;;;;;127.63;82.73;;;;;;;13.05;100.00;100554.25;5069939;28;20488;-50
2022/10/15 07:20:38;;;;;;;125.73;79.50;;;;;;;13.10;100.00;100553.66;5063317;28;20474;-47
2022/10/15 07:23:06;;;;;;;101.43;74.77;;;;;;;13.15;100.00;100553.81;5070325;28;20447;-55
2022/10/15 07:25:35;;;;;;;109.83;71.50;;;;;;;13.19;100.00;100549.69;5071295;28;20983;-51
2022/10/15 07:28:02;;;;;;;113.77;78.23;;;;;;;13.23;100.00;100557.03;5071712;28;20487;-52
2022/10/15 07:30:30;;;;;;;101.37;73.63;;;;;;;13.32;100.00;100556.78;5072045;28;20435;-52
2022/10/15 07:32:58;;;;;;;89.37;72.30;;;;;;;13.39;100.00;100552.19;5071677;28;20462;-54
2022/10/15 07:35:27;;;;;;;97.83;71.00;;;;;;;13.45;100.00;100553.97;5071259;28;20523;-49
2022/10/15 07:37:54;;;;;;;93.47;72.07;;;;;;;13.50;100.00;100544.25;5071796;28;20437;-52
2022/10/15 07:40:22;;;;;;;95.73;68.20;;;;;;;13.57;100.00;100552.22;5071617;28;20470;-55
2022/10/15 07:42:54;;;;;;;104.80;73.70;;;;;;;13.57;100.00;100561.09;5071363;28;20860;-51
2022/10/15 07:45:21;;;;;;;86.20;68.27;;;;;;;13.59;100.00;100550.97;5071390;28;20855;-52
2022/10/15 07:47:49;;;;;;;95.07;71.53;;;;;;;13.57;100.00;100555.72;5071771;28;20468;-49
2022/10/15 07:50:17;;;;;;;92.17;68.43;;;;;;;13.58;100.00;100553.88;5077333;28;20785;-50
2022/10/15 07:52:45;;;;;;;94.67;66.73;;;;;;;13.60;100.00;100551.78;5078092;28;20450;-51
2022/10/15 07:55:12;;;;;;;108.47;73.97;;;;;;;13.57;100.00;100561.09;5077747;28;20511;-48
2022/10/15 07:57:40;;;;;;;110.80;70.27;;;;;;;13.56;100.00;100554.06;5078385;28;20429;-55
2022/10/15 08:00:10;;;;;;;111.77;72.47;;;;;;;13.55;100.00;100555.13;5078142;28;20503;-49
2022/10/15 08:02:38;;;;;;;141.27;74.40;;;;;;;13.56;100.00;100561.31;5078072;28;20445;-51
2022/10/15 08:05:06;;;;;;;124.30;76.70;;;;;;;13.49;100.00;100564.06;5077748;28;20492;-51
2022/10/15 08:07:34;;;;;;;122.73;74.80;;;;;;;13.45;100.00;100565.53;5078151;28;20990;-54
2022/10/15 08:10:02;;;;;;;105.57;74.47;;;;;;;13.42;100.00;100565.13;5078280;28;20430;-48
2022/10/15 08:12:29;;;;;;;123.97;75.50;;;;;;;13.42;100.00;100563.28;5077910;28;20461;-50
2022/10/15 08:14:57;;;;;;;125.50;77.40;;;;;;;13.42;100.00;100565.13;5077850;28;20434;-48
2022/10/15 08:17:26;;;;;;;129.47;76.00;;;;;;;13.41;100.00;100555.47;5078180;28;20434;-48
2022/10/15 08:19:54;;;;;;;107.60;70.77;;;;;;;13.47;100.00;100557.28;5073288;28;20474;-49
2022/10/15 08:22:21;;;;;;;117.27;75.43;;;;;;;13.48;100.00;100562.41;5074154;28;20499;-49
2022/10/15 08:24:51;;;;;;;127.30;78.17;;;;;;;13.49;100.00;100565.91;5077773;28;20521;-48
2022/10/15 08:27:18;;;;;;;116.57;73.20;;;;;;;13.54;100.00;100563.38;5078105;28;20868;-47
2022/10/15 08:29:46;;;;;;;130.27;75.03;;;;;;;13.56;100.00;100559.44;5076888;28;21124;-53
2022/10/15 08:32:14;;;;;;;127.97;75.03;;;;;;;13.57;100.00;100554.91;5076126;28;20986;-50
2022/10/15 08:34:43;;;;;;;116.00;76.23;;;;;;;13.65;100.00;100551.97;5075527;28;20907;-50
2022/10/15 08:37:10;;;;;;;114.33;72.47;;;;;;;13.73;100.00;100554.34;5077320;28;20533;-53
2022/10/15 08:39:38;;;;;;;113.47;73.33;;;;;;;13.80;100.00;100558.59;5077441;28;20997;-48
2022/10/15 08:42:14;;;;;;;123.27;78.60;;;;;;;13.86;100.00;100546.16;5077086;28;20460;-53
2022/10/15 08:44:45;;;;;;;127.10;77.33;;;;;;;13.96;100.00;100554.50;5077527;28;20846;-48
2022/10/15 08:47:25;;;;;;;129.20;77.37;;;;;;;14.11;100.00;100554.13;5077008;28;20826;-53
2022/10/15 08:49:58;;;;;;;124.53;72.17;;;;;;;14.30;100.00;100550.41;5067389;28;20436;-51
2022/10/15 08:52:33;;;;;;;121.30;77.23;;;;;;;14.51;100.00;100554.50;5076971;28;20955;-52
2022/10/15 08:55:01;;;;;;;118.07;78.53;;;;;;;14.50;100.00;100553.69;5077302;28;20422;-51
2022/10/15 08:57:38;;;;;;;110.03;75.23;;;;;;;14.50;100.00;100559.03;5077167;28;20580;-50
2022/10/15 09:00:16;;;;;;;113.63;74.77;;;;;;;14.48;100.00;100557.63;5076430;28;20474;-55
2022/10/15 09:02:51;;;;;;;103.07;73.50;;;;;;;14.41;100.00;100557.72;5060891;28;20454;-55
2022/10/15 09:05:30;;;;;;;113.37;75.43;;;;;;;14.43;100.00;100566.34;5072331;28;20484;-54
2022/10/15 09:08:04;;;;;;;105.10;72.30;;;;;;;14.51;100.00;100560.69;5074015;28;20426;-54
2022/10/15 09:10:39;;;;;;;110.43;72.00;;;;;;;14.50;100.00;100566.28;5074181;28;20826;-55
2022/10/15 09:13:13;;;;;;;96.63;70.97;;;;;;;14.47;100.00;100567.53;5067704;28;20453;-55
2022/10/15 09:15:48;;;;;;;96.37;69.27;;;;;;;14.47;100.00;100564.88;5072969;28;20998;-54
2022/10/15 09:18:22;;;;;;;99.13;72.20;;;;;;;14.51;100.00;100567.91;5073645;28;20506;-50
2022/10/15 09:20:52;;;;;;;91.67;66.07;;;;;;;14.49;100.00;100565.44;5071914;28;20995;-51
2022/10/15 09:23:23;;;;;;;98.70;71.03;;;;;;;14.46;100.00;100575.81;5073440;28;20858;-52
2022/10/15 09:25:58;;;;;;;95.07;69.57;;;;;;;14.44;100.00;100572.53;5073158;28;20466;-56
2022/10/15 09:28:34;;;;;;;104.57;72.63;;;;;;;14.47;100.00;100569.41;5072767;28;20486;-51
2022/10/15 09:31:02;;;;;;;87.77;66.37;;;;;;;14.47;100.00;100574.78;5069839;28;20526;-51
2022/10/15 09:33:37;;;;;;;96.90;74.40;;;;;;;14.48;100.00;100569.19;5070869;28;20508;-56
2022/10/15 09:36:18;;;;;;;112.53;73.77;;;;;;;14.47;100.00;100561.34;5072101;28;20879;-50
2022/10/15 09:38:57;;;;;;;117.20;73.30;;;;;;;14.38;100.00;100559.00;5066841;28;20484;-53
2022/10/15 09:41:33;;;;;;;110.37;72.07;;;;;;;14.33;100.00;100563.41;5071639;28;20474;-53
2022/10/15 09:44:02;;;;;;;103.90;67.07;;;;;;;14.34;100.00;100571.22;5072189;28;20452;-52
2022/10/15 09:46:33;;;;;;;117.50;70.07;;;;;;;14.35;100.00;100570.16;5071793;28;20620;-56
2022/10/15 09:49:08;;;;;;;108.53;70.60;;;;;;;14.34;100.00;100571.22;5072466;28;20434;-55
2022/10/15 09:51:43;;;;;;;118.93;70.60;;;;;;;14.33;100.00;100566.09;5072180;28;20426;-49
2022/10/15 09:54:18;;;;;;;102.00;64.87;;;;;;;14.31;100.00;100562.75;5072012;28;20426;-50
2022/10/15 09:56:52;;;;;;;113.03;67.60;;;;;;;14.31;100.00;100568.94;5071549;28;21049;-55
2022/10/15 09:59:22;;;;;;;94.60;63.37;;;;;;;14.27;100.00;100572.31;5072186;28;20468;-55
2022/10/15 10:01:57;;;;;;;105.13;65.57;;;;;;;14.31;100.00;100565.44;5071513;28;20561;-50
2022/10/15 10:04:27;;;;;;;98.37;63.73;;;;;;;14.37;100.00;100573.44;5071414;28;20425;-52
2022/10/15 10:07:00;;;;;;;111.23;68.10;;;;;;;14.39;100.00;100573.22;5071421;28;20511;-51
2022/10/15 10:09:31;;;;;;;108.87;68.40;;;;;;;14.51;100.00;100574.13;5071657;28;20973;-50
2022/10/15 10:12:01;;;;;;;98.70;65.03;;;;;;;14.59;100.00;100571.09;5070927;28;21024;-54
2022/10/15 10:14:33;;;;;;;100.07;65.67;;;;;;;14.66;100.00;100571.84;5071257;28;20434;-53
2022/10/15 10:17:15;;;;;;;90.73;60.90;;;;;;;14.75;100.00;100567.81;5071279;28;20462;-53
2022/10/15 10:19:43;;;;;;;88.43;62.40;;;;;;;14.80;100.00;100564.41;5065674;28;20420;-54
2022/10/15 10:22:17;;;;;;;109.97;66.53;;;;;;;14.78;100.00;100570.00;5066517;28;20478;-52
2022/10/15 10:24:46;;;;;;;94.83;64.20;;;;;;;14.73;100.00;100561.81;5070271;28;20421;-52
2022/10/15 10:27:20;;;;;;;87.67;62.30;;;;;;;14.76;100.00;100565.91;5070898;28;20563;-53
2022/10/15 10:29:53;;;;;;;91.57;63.77;;;;;;;14.78;100.00;100567.31;5063700;28;20915;-56
2022/10/15 10:32:26;;;;;;;98.73;70.03;;;;;;;14.83;100.00;100569.34;5059145;28;20462;-51
2022/10/15 10:34:54;;;;;;;83.07;62.27;;;;;;;14.85;100.00;100567.22;5070704;28;20480;-53
2022/10/15 10:37:24;;;;;;;90.57;66.90;;;;;;;14.85;100.00;100560.00;5071323;28;20487;-54
2022/10/15 10:39:54;;;;;;;74.17;63.23;;;;;;;14.90;100.00;100572.75;5070938;28;20869;-53
2022/10/15 10:42:30;;;;;;;87.70;64.83;;;;;;;14.89;100.00;100560.38;5070602;28;20543;-55
2022/10/15 10:45:16;;;;;;;81.80;66.23;;;;;;;14.98;100.00;100560.84;5070567;28;20471;-53
2022/10/15 10:47:45;;;;;;;83.60;64.03;;;;;;;15.18;100.00;100555.97;5071240;28;20426;-53
2022/10/15 10:50:39;;;;;;;81.50;66.23;;;;;;;15.40;100.00;100557.09;5071099;28;20434;-51
2022/10/15 10:53:21;;;;;;;81.73;66.73;;;;;;;15.69;100.00;100558.88;5067859;28;20997;-52
2022/10/15 10:55:50;;;;;;;71.40;63.57;;;;;;;15.88;100.00;100559.56;5070492;28;20508;-53
2022/10/15 10:58:20;;;;;;;80.10;67.60;;;;;;;15.98;100.00;100549.84;5070950;28;20430;-51
2022/10/15 11:00:54;;;;;;;78.33;66.03;;;;;;;16.04;100.00;100551.56;5071075;28;20437;-56
2022/10/15 11:03:33;;;;;;;72.77;65.27;;;;;;;16.09;100.00;100542.00;5070399;28;20507;-55
2022/10/15 11:06:23;;;;;;;72.87;65.37;;;;;;;16.18;100.00;100552.16;5069425;28;20485;-56
2022/10/15 11:09:06;;;;;;;72.73;64.93;;;;;;;16.18;100.00;100546.78;5068261;28;20973;-51
2022/10/15 11:11:42;;;;;;;78.00;66.90;;;;;;;16.23;100.00;100540.66;5070523;28;20457;-54
2022/10/15 11:14:20;;;;;;;82.30;68.97;;;;;;;16.21;100.00;100537.41;5063607;28;20434;-53